sensor_id;sensor_type;location;lat;lon;timestamp;temperature;humidity
46366;DHT22;32073;49.166;8.076;2022-09-27T00:00:09;15.40;66.70
46366;DHT22;32073;49.166;8.076;2022-09-27T00:04:11;15.30;66.70
46366;DHT22;32073;49.166;8.076;2022-09-27T00:08:12;15.30;66.90
46366;DHT22;32073;49.166;8.076;2022-09-27T00:12:14;15.30;67.00
46366;DHT22;32073;49.166;8.076;2022-09-27T00:16:14;15.40;67.10
46366;DHT22;32073;49.166;8.076;2022-09-27T00:20:15;15.40;67.20
46366;DHT22;32073;49.166;8.076;2022-09-27T00:24:19;15.30;67.10
46366;DHT22;32073;49.166;8.076;2022-09-27T00:28:20;15.40;67.20
46366;DHT22;32073;49.166;8.076;2022-09-27T00:32:21;15.30;67.20
46366;DHT22;32073;49.166;8.076;2022-09-27T00:36:23;15.30;67.20
46366;DHT22;32073;49.166;8.076;2022-09-27T00:40:25;15.30;67.20
46366;DHT22;32073;49.166;8.076;2022-09-27T00:48:30;15.30;67.10
46366;DHT22;32073;49.166;8.076;2022-09-27T00:52:47;15.30;67.20
46366;DHT22;32073;49.166;8.076;2022-09-27T00:56:55;15.10;66.60
46366;DHT22;32073;49.166;8.076;2022-09-27T01:01:00;15.10;67.00
46366;DHT22;32073;49.166;8.076;2022-09-27T01:05:05;15.00;67.00
46366;DHT22;32073;49.166;8.076;2022-09-27T01:09:09;15.00;67.00
46366;DHT22;32073;49.166;8.076;2022-09-27T01:13:19;14.90;67.00
46366;DHT22;32073;49.166;8.076;2022-09-27T01:27:21;14.80;67.20
46366;DHT22;32073;49.166;8.076;2022-09-27T01:32:11;14.80;67.10
46366;DHT22;32073;49.166;8.076;2022-09-27T01:41:26;14.80;67.20
46366;DHT22;32073;49.166;8.076;2022-09-27T01:45:47;14.70;67.20
46366;DHT22;32073;49.166;8.076;2022-09-27T01:50:23;14.70;67.20
46366;DHT22;32073;49.166;8.076;2022-09-27T01:54:30;14.70;67.30
46366;DHT22;32073;49.166;8.076;2022-09-27T01:58:54;14.70;67.40
46366;DHT22;32073;49.166;8.076;2022-09-27T02:02:58;14.60;67.40
46366;DHT22;32073;49.166;8.076;2022-09-27T02:07:07;14.60;67.70
46366;DHT22;32073;49.166;8.076;2022-09-27T02:11:16;14.70;67.90
46366;DHT22;32073;49.166;8.076;2022-09-27T02:15:17;14.70;67.90
46366;DHT22;32073;49.166;8.076;2022-09-27T02:23:53;14.70;67.80
46366;DHT22;32073;49.166;8.076;2022-09-27T02:28:25;14.70;67.70
46366;DHT22;32073;49.166;8.076;2022-09-27T02:32:35;14.80;67.60
46366;DHT22;32073;49.166;8.076;2022-09-27T02:36:36;14.70;67.60
46366;DHT22;32073;49.166;8.076;2022-09-27T02:40:43;14.70;67.60
46366;DHT22;32073;49.166;8.076;2022-09-27T02:44:45;14.70;67.70
46366;DHT22;32073;49.166;8.076;2022-09-27T02:49:09;14.70;67.80
46366;DHT22;32073;49.166;8.076;2022-09-27T02:53:40;14.70;67.80
46366;DHT22;32073;49.166;8.076;2022-09-27T03:02:23;14.70;67.70
46366;DHT22;32073;49.166;8.076;2022-09-27T03:06:28;14.70;67.70
46366;DHT22;32073;49.166;8.076;2022-09-27T03:10:29;14.70;67.60
46366;DHT22;32073;49.166;8.076;2022-09-27T03:14:30;14.60;67.60
46366;DHT22;32073;49.166;8.076;2022-09-27T03:18:32;14.70;67.70
46366;DHT22;32073;49.166;8.076;2022-09-27T03:22:33;14.70;67.80
46366;DHT22;32073;49.166;8.076;2022-09-27T03:26:34;14.60;67.60
46366;DHT22;32073;49.166;8.076;2022-09-27T03:30:35;14.60;67.60
46366;DHT22;32073;49.166;8.076;2022-09-27T03:34:36;14.60;67.60
46366;DHT22;32073;49.166;8.076;2022-09-27T03:38:37;14.60;67.50
46366;DHT22;32073;49.166;8.076;2022-09-27T03:42:38;14.50;67.30
46366;DHT22;32073;49.166;8.076;2022-09-27T03:46:39;14.50;66.90
46366;DHT22;32073;49.166;8.076;2022-09-27T03:50:39;14.40;66.90
46366;DHT22;32073;49.166;8.076;2022-09-27T03:54:40;14.30;66.90
46366;DHT22;32073;49.166;8.076;2022-09-27T03:58:42;14.30;67.10
46366;DHT22;32073;49.166;8.076;2022-09-27T04:02:43;14.30;67.10
46366;DHT22;32073;49.166;8.076;2022-09-27T04:06:44;14.20;66.90
46366;DHT22;32073;49.166;8.076;2022-09-27T04:10:44;14.20;67.00
46366;DHT22;32073;49.166;8.076;2022-09-27T04:14:45;14.20;67.00
46366;DHT22;32073;49.166;8.076;2022-09-27T04:18:46;14.10;66.90
46366;DHT22;32073;49.166;8.076;2022-09-27T04:22:47;14.10;66.80
46366;DHT22;32073;49.166;8.076;2022-09-27T04:26:47;14.00;67.00
46366;DHT22;32073;49.166;8.076;2022-09-27T04:30:48;14.00;67.00
46366;DHT22;32073;49.166;8.076;2022-09-27T04:34:49;14.00;66.90
46366;DHT22;32073;49.166;8.076;2022-09-27T04:39:08;14.00;66.90
46366;DHT22;32073;49.166;8.076;2022-09-27T04:43:09;14.00;67.00
46366;DHT22;32073;49.166;8.076;2022-09-27T04:47:10;14.00;67.00
46366;DHT22;32073;49.166;8.076;2022-09-27T04:51:11;13.90;67.20
46366;DHT22;32073;49.166;8.076;2022-09-27T04:55:12;13.90;67.40
46366;DHT22;32073;49.166;8.076;2022-09-27T04:59:12;14.00;67.60
46366;DHT22;32073;49.166;8.076;2022-09-27T05:03:13;14.00;67.50
46366;DHT22;32073;49.166;8.076;2022-09-27T05:07:14;14.00;67.50
46366;DHT22;32073;49.166;8.076;2022-09-27T05:11:15;14.00;67.40
46366;DHT22;32073;49.166;8.076;2022-09-27T05:15:16;14.10;67.40
46366;DHT22;32073;49.166;8.076;2022-09-27T05:19:16;14.10;67.40
46366;DHT22;32073;49.166;8.076;2022-09-27T05:23:17;14.10;67.40
46366;DHT22;32073;49.166;8.076;2022-09-27T05:27:19;14.10;67.50
46366;DHT22;32073;49.166;8.076;2022-09-27T05:31:20;14.10;67.40
46366;DHT22;32073;49.166;8.076;2022-09-27T05:35:21;14.10;67.40
46366;DHT22;32073;49.166;8.076;2022-09-27T05:39:22;14.10;67.40
46366;DHT22;32073;49.166;8.076;2022-09-27T05:43:23;14.10;67.40
46366;DHT22;32073;49.166;8.076;2022-09-27T05:47:24;14.10;67.40
46366;DHT22;32073;49.166;8.076;2022-09-27T05:51:25;14.10;67.20
46366;DHT22;32073;49.166;8.076;2022-09-27T05:55:26;14.10;67.10
46366;DHT22;32073;49.166;8.076;2022-09-27T05:59:27;14.20;67.10
46366;DHT22;32073;49.166;8.076;2022-09-27T06:03:28;14.20;67.10
46366;DHT22;32073;49.166;8.076;2022-09-27T06:07:30;14.10;67.10
46366;DHT22;32073;49.166;8.076;2022-09-27T06:11:31;14.10;66.90
46366;DHT22;32073;49.166;8.076;2022-09-27T06:15:33;14.10;66.70
46366;DHT22;32073;49.166;8.076;2022-09-27T06:19:36;14.10;66.50
46366;DHT22;32073;49.166;8.076;2022-09-27T06:23:37;14.10;66.40
46366;DHT22;32073;49.166;8.076;2022-09-27T06:27:44;14.10;66.50
46366;DHT22;32073;49.166;8.076;2022-09-27T06:36:12;14.10;66.70
46366;DHT22;32073;49.166;8.076;2022-09-27T06:40:13;14.10;66.70
46366;DHT22;32073;49.166;8.076;2022-09-27T06:44:14;14.10;66.80
46366;DHT22;32073;49.166;8.076;2022-09-27T06:48:15;14.20;66.90
46366;DHT22;32073;49.166;8.076;2022-09-27T06:52:16;14.20;66.90
46366;DHT22;32073;49.166;8.076;2022-09-27T06:56:23;14.30;66.90
46366;DHT22;32073;49.166;8.076;2022-09-27T07:00:27;14.30;66.40
46366;DHT22;32073;49.166;8.076;2022-09-27T07:04:32;14.30;66.70
46366;DHT22;32073;49.166;8.076;2022-09-27T07:08:38;14.30;66.70
46366;DHT22;32073;49.166;8.076;2022-09-27T07:12:39;14.40;66.60
46366;DHT22;32073;49.166;8.076;2022-09-27T07:16:40;14.40;66.70
46366;DHT22;32073;49.166;8.076;2022-09-27T07:20:41;14.50;66.50
46366;DHT22;32073;49.166;8.076;2022-09-27T07:24:42;14.50;66.50
46366;DHT22;32073;49.166;8.076;2022-09-27T07:28:43;14.50;66.50
46366;DHT22;32073;49.166;8.076;2022-09-27T07:32:44;14.50;66.50
46366;DHT22;32073;49.166;8.076;2022-09-27T07:36:45;14.50;66.30
46366;DHT22;32073;49.166;8.076;2022-09-27T07:40:46;14.60;66.50
46366;DHT22;32073;49.166;8.076;2022-09-27T07:44:46;14.60;66.60
46366;DHT22;32073;49.166;8.076;2022-09-27T07:48:50;14.70;66.50
46366;DHT22;32073;49.166;8.076;2022-09-27T07:52:51;14.70;66.30
46366;DHT22;32073;49.166;8.076;2022-09-27T07:56:52;14.80;66.40
46366;DHT22;32073;49.166;8.076;2022-09-27T08:00:54;14.80;66.40
46366;DHT22;32073;49.166;8.076;2022-09-27T08:04:56;14.90;66.30
46366;DHT22;32073;49.166;8.076;2022-09-27T08:08:56;14.90;66.40
46366;DHT22;32073;49.166;8.076;2022-09-27T08:13:02;15.10;66.70
46366;DHT22;32073;49.166;8.076;2022-09-27T08:17:03;15.10;66.20
46366;DHT22;32073;49.166;8.076;2022-09-27T08:21:04;15.20;65.90
46366;DHT22;32073;49.166;8.076;2022-09-27T08:25:05;15.20;65.80
46366;DHT22;32073;49.166;8.076;2022-09-27T08:29:06;15.20;66.40
46366;DHT22;32073;49.166;8.076;2022-09-27T08:33:08;15.30;66.30
46366;DHT22;32073;49.166;8.076;2022-09-27T08:37:08;15.40;66.30
46366;DHT22;32073;49.166;8.076;2022-09-27T08:41:43;15.60;66.10
46366;DHT22;32073;49.166;8.076;2022-09-27T08:46:27;15.60;65.20
46366;DHT22;32073;49.166;8.076;2022-09-27T08:50:41;15.70;65.40
46366;DHT22;32073;49.166;8.076;2022-09-27T08:54:44;15.80;65.30
46366;DHT22;32073;49.166;8.076;2022-09-27T08:58:49;15.90;65.90
46366;DHT22;32073;49.166;8.076;2022-09-27T09:02:55;15.90;65.60
46366;DHT22;32073;49.166;8.076;2022-09-27T09:16:33;16.10;64.80
46366;DHT22;32073;49.166;8.076;2022-09-27T09:25:21;16.30;64.70
46366;DHT22;32073;49.166;8.076;2022-09-27T09:34:29;16.40;64.70
46366;DHT22;32073;49.166;8.076;2022-09-27T09:39:04;16.30;64.40
46366;DHT22;32073;49.166;8.076;2022-09-27T09:43:32;16.20;64.10
46366;DHT22;32073;49.166;8.076;2022-09-27T09:47:41;16.10;64.20
46366;DHT22;32073;49.166;8.076;2022-09-27T09:51:47;16.00;64.70
46366;DHT22;32073;49.166;8.076;2022-09-27T09:55:56;15.90;64.80
46366;DHT22;32073;49.166;8.076;2022-09-27T10:00:04;15.90;65.10
46366;DHT22;32073;49.166;8.076;2022-09-27T10:04:25;15.90;65.30
46366;DHT22;32073;49.166;8.076;2022-09-27T10:08:32;16.00;64.30
46366;DHT22;32073;49.166;8.076;2022-09-27T10:12:34;16.00;64.80
46366;DHT22;32073;49.166;8.076;2022-09-27T10:16:36;16.10;64.90
46366;DHT22;32073;49.166;8.076;2022-09-27T10:20:47;16.10;64.80
46366;DHT22;32073;49.166;8.076;2022-09-27T10:24:57;16.10;64.20
46366;DHT22;32073;49.166;8.076;2022-09-27T10:29:32;16.10;64.30
46366;DHT22;32073;49.166;8.076;2022-09-27T10:33:39;16.20;63.50
46366;DHT22;32073;49.166;8.076;2022-09-27T10:38:21;16.20;64.20
46366;DHT22;32073;49.166;8.076;2022-09-27T10:42:34;16.20;63.90
46366;DHT22;32073;49.166;8.076;2022-09-27T10:46:37;16.30;64.00
46366;DHT22;32073;49.166;8.076;2022-09-27T10:50:38;16.40;64.60
46366;DHT22;32073;49.166;8.076;2022-09-27T10:54:41;16.50;64.50
46366;DHT22;32073;49.166;8.076;2022-09-27T10:58:44;16.60;64.20
46366;DHT22;32073;49.166;8.076;2022-09-27T11:03:07;16.70;63.90
46366;DHT22;32073;49.166;8.076;2022-09-27T11:07:16;16.80;63.90
46366;DHT22;32073;49.166;8.076;2022-09-27T11:11:26;17.00;64.60
46366;DHT22;32073;49.166;8.076;2022-09-27T11:15:29;17.20;64.20
46366;DHT22;32073;49.166;8.076;2022-09-27T11:37:30;18.20;62.10
46366;DHT22;32073;49.166;8.076;2022-09-27T11:46:21;18.40;62.40
46366;DHT22;32073;49.166;8.076;2022-09-27T11:50:51;18.60;61.30
46366;DHT22;32073;49.166;8.076;2022-09-27T12:12:34;18.70;59.80
46366;DHT22;32073;49.166;8.076;2022-09-27T12:16:38;18.50;60.50
46366;DHT22;32073;49.166;8.076;2022-09-27T12:20:40;18.40;60.20
46366;DHT22;32073;49.166;8.076;2022-09-27T12:24:43;18.20;59.70
46366;DHT22;32073;49.166;8.076;2022-09-27T12:29:02;18.00;59.70
46366;DHT22;32073;49.166;8.076;2022-09-27T12:37:28;17.80;59.80
46366;DHT22;32073;49.166;8.076;2022-09-27T12:41:35;17.50;60.10
46366;DHT22;32073;49.166;8.076;2022-09-27T12:45:41;17.30;59.90
46366;DHT22;32073;49.166;8.076;2022-09-27T12:50:39;17.10;60.10
46366;DHT22;32073;49.166;8.076;2022-09-27T12:59:27;16.70;60.10
46366;DHT22;32073;49.166;8.076;2022-09-27T13:12:52;16.70;61.60
46366;DHT22;32073;49.166;8.076;2022-09-27T13:16:54;16.70;61.90
46366;DHT22;32073;49.166;8.076;2022-09-27T14:41:11;17.10;62.10
46366;DHT22;32073;49.166;8.076;2022-09-27T14:45:39;17.20;62.30
46366;DHT22;32073;49.166;8.076;2022-09-27T14:50:27;17.20;61.50
46366;DHT22;32073;49.166;8.076;2022-09-27T14:54:29;17.30;61.10
46366;DHT22;32073;49.166;8.076;2022-09-27T14:58:31;17.20;61.40
46366;DHT22;32073;49.166;8.076;2022-09-27T15:02:32;17.20;61.00
46366;DHT22;32073;49.166;8.076;2022-09-27T15:06:36;17.10;60.80
46366;DHT22;32073;49.166;8.076;2022-09-27T15:10:38;17.00;60.90
46366;DHT22;32073;49.166;8.076;2022-09-27T15:14:39;17.00;60.90
46366;DHT22;32073;49.166;8.076;2022-09-27T16:15:54;13.20;65.10
46366;DHT22;32073;49.166;8.076;2022-09-27T16:19:57;13.10;65.40
46366;DHT22;32073;49.166;8.076;2022-09-27T16:23:57;13.60;65.20
46366;DHT22;32073;49.166;8.076;2022-09-27T16:28:03;13.80;64.80
46366;DHT22;32073;49.166;8.076;2022-09-27T16:32:04;14.20;64.20
46366;DHT22;32073;49.166;8.076;2022-09-27T16:36:07;14.40;64.00
46366;DHT22;32073;49.166;8.076;2022-09-27T16:40:15;14.70;63.80
46366;DHT22;32073;49.166;8.076;2022-09-27T16:44:19;14.90;63.70
46366;DHT22;32073;49.166;8.076;2022-09-27T16:48:20;15.00;63.30
46366;DHT22;32073;49.166;8.076;2022-09-27T16:52:20;15.10;63.00
46366;DHT22;32073;49.166;8.076;2022-09-27T16:56:21;15.20;62.70
46366;DHT22;32073;49.166;8.076;2022-09-27T17:00:22;15.20;62.50
46366;DHT22;32073;49.166;8.076;2022-09-27T17:04:27;15.20;62.20
46366;DHT22;32073;49.166;8.076;2022-09-27T17:08:28;15.20;61.90
46366;DHT22;32073;49.166;8.076;2022-09-27T17:12:30;15.20;62.00
46366;DHT22;32073;49.166;8.076;2022-09-27T17:16:31;15.20;61.90
46366;DHT22;32073;49.166;8.076;2022-09-27T17:20:32;15.10;61.80
46366;DHT22;32073;49.166;8.076;2022-09-27T17:24:34;15.10;61.80
46366;DHT22;32073;49.166;8.076;2022-09-27T17:28:35;15.00;61.80
46366;DHT22;32073;49.166;8.076;2022-09-27T17:32:36;14.90;62.00
46366;DHT22;32073;49.166;8.076;2022-09-27T17:36:39;14.90;62.00
46366;DHT22;32073;49.166;8.076;2022-09-27T17:40:41;14.80;62.70
46366;DHT22;32073;49.166;8.076;2022-09-27T17:44:42;14.80;62.10
46366;DHT22;32073;49.166;8.076;2022-09-27T17:48:43;14.80;62.10
46366;DHT22;32073;49.166;8.076;2022-09-27T17:53:01;14.80;62.20
46366;DHT22;32073;49.166;8.076;2022-09-27T17:57:02;14.80;62.00
46366;DHT22;32073;49.166;8.076;2022-09-27T18:01:04;14.70;62.30
46366;DHT22;32073;49.166;8.076;2022-09-27T18:05:06;14.70;62.50
46366;DHT22;32073;49.166;8.076;2022-09-27T18:09:09;14.70;62.60
46366;DHT22;32073;49.166;8.076;2022-09-27T18:13:10;14.80;62.70
46366;DHT22;32073;49.166;8.076;2022-09-27T18:17:12;14.80;62.60
46366;DHT22;32073;49.166;8.076;2022-09-27T18:21:15;14.70;62.30
46366;DHT22;32073;49.166;8.076;2022-09-27T18:25:21;14.70;62.10
46366;DHT22;32073;49.166;8.076;2022-09-27T18:29:24;14.60;62.00
46366;DHT22;32073;49.166;8.076;2022-09-27T18:33:25;14.50;61.90
46366;DHT22;32073;49.166;8.076;2022-09-27T18:37:25;14.50;62.10
46366;DHT22;32073;49.166;8.076;2022-09-27T18:41:31;14.50;62.30
46366;DHT22;32073;49.166;8.076;2022-09-27T18:45:36;14.40;62.10
46366;DHT22;32073;49.166;8.076;2022-09-27T18:49:37;14.40;62.20
46366;DHT22;32073;49.166;8.076;2022-09-27T18:53:38;14.40;62.30
46366;DHT22;32073;49.166;8.076;2022-09-27T18:57:39;14.20;62.30
46366;DHT22;32073;49.166;8.076;2022-09-27T19:01:41;14.30;62.50
46366;DHT22;32073;49.166;8.076;2022-09-27T19:06:02;14.30;62.50
46366;DHT22;32073;49.166;8.076;2022-09-27T19:10:05;14.30;62.60
46366;DHT22;32073;49.166;8.076;2022-09-27T19:14:06;14.30;62.80
46366;DHT22;32073;49.166;8.076;2022-09-27T19:18:07;14.30;62.80
46366;DHT22;32073;49.166;8.076;2022-09-27T19:22:08;14.40;62.90
46366;DHT22;32073;49.166;8.076;2022-09-27T19:26:12;14.40;62.90
46366;DHT22;32073;49.166;8.076;2022-09-27T19:30:14;14.40;62.90
46366;DHT22;32073;49.166;8.076;2022-09-27T19:34:15;14.40;63.00
46366;DHT22;32073;49.166;8.076;2022-09-27T19:38:15;14.40;63.00
46366;DHT22;32073;49.166;8.076;2022-09-27T19:42:16;14.40;62.90
46366;DHT22;32073;49.166;8.076;2022-09-27T19:46:19;14.40;62.70
46366;DHT22;32073;49.166;8.076;2022-09-27T19:50:21;14.30;62.60
46366;DHT22;32073;49.166;8.076;2022-09-27T19:54:23;14.20;62.50
46366;DHT22;32073;49.166;8.076;2022-09-27T19:58:24;14.30;62.60
46366;DHT22;32073;49.166;8.076;2022-09-27T20:02:26;14.20;62.80
46366;DHT22;32073;49.166;8.076;2022-09-27T20:06:26;14.10;62.80
46366;DHT22;32073;49.166;8.076;2022-09-27T20:10:27;14.10;62.80
46366;DHT22;32073;49.166;8.076;2022-09-27T20:14:28;14.10;63.00
46366;DHT22;32073;49.166;8.076;2022-09-27T20:18:28;14.10;63.00
46366;DHT22;32073;49.166;8.076;2022-09-27T20:22:30;14.10;63.00
46366;DHT22;32073;49.166;8.076;2022-09-27T20:26:31;14.10;63.20
46366;DHT22;32073;49.166;8.076;2022-09-27T20:30:33;14.10;63.30
46366;DHT22;32073;49.166;8.076;2022-09-27T20:34:34;14.10;63.30
46366;DHT22;32073;49.166;8.076;2022-09-27T20:38:35;14.10;63.30
46366;DHT22;32073;49.166;8.076;2022-09-27T20:42:36;14.10;63.40
46366;DHT22;32073;49.166;8.076;2022-09-27T20:46:38;14.10;63.40
46366;DHT22;32073;49.166;8.076;2022-09-27T20:50:39;14.10;63.40
46366;DHT22;32073;49.166;8.076;2022-09-27T20:54:40;14.10;63.50
46366;DHT22;32073;49.166;8.076;2022-09-27T20:58:41;14.10;63.60
46366;DHT22;32073;49.166;8.076;2022-09-27T21:02:42;14.10;63.70
46366;DHT22;32073;49.166;8.076;2022-09-27T21:06:43;14.20;63.80
46366;DHT22;32073;49.166;8.076;2022-09-27T21:10:44;14.10;63.90
46366;DHT22;32073;49.166;8.076;2022-09-27T21:14:44;14.20;63.90
46366;DHT22;32073;49.166;8.076;2022-09-27T21:18:48;14.20;63.90
46366;DHT22;32073;49.166;8.076;2022-09-27T21:22:52;14.30;63.80
46366;DHT22;32073;49.166;8.076;2022-09-27T21:26:53;14.20;63.80
46366;DHT22;32073;49.166;8.076;2022-09-27T21:30:53;14.20;63.70
46366;DHT22;32073;49.166;8.076;2022-09-27T21:34:54;14.20;63.70
46366;DHT22;32073;49.166;8.076;2022-09-27T21:38:55;14.20;63.60
46366;DHT22;32073;49.166;8.076;2022-09-27T21:42:56;14.20;63.60
46366;DHT22;32073;49.166;8.076;2022-09-27T21:46:57;14.20;63.60
46366;DHT22;32073;49.166;8.076;2022-09-27T21:51:26;14.20;63.60
46366;DHT22;32073;49.166;8.076;2022-09-27T21:55:27;14.10;63.40
46366;DHT22;32073;49.166;8.076;2022-09-27T21:59:28;14.10;63.60
46366;DHT22;32073;49.166;8.076;2022-09-27T22:03:28;14.10;63.70
46366;DHT22;32073;49.166;8.076;2022-09-27T22:07:29;14.00;63.80
46366;DHT22;32073;49.166;8.076;2022-09-27T22:11:32;14.00;63.90
46366;DHT22;32073;49.166;8.076;2022-09-27T22:15:35;14.10;64.10
46366;DHT22;32073;49.166;8.076;2022-09-27T22:19:36;14.00;64.20
46366;DHT22;32073;49.166;8.076;2022-09-27T22:23:37;14.00;64.30
46366;DHT22;32073;49.166;8.076;2022-09-27T22:27:38;14.00;64.40
46366;DHT22;32073;49.166;8.076;2022-09-27T22:31:39;14.10;64.50
46366;DHT22;32073;49.166;8.076;2022-09-27T22:35:46;14.10;64.50
46366;DHT22;32073;49.166;8.076;2022-09-27T22:39:47;14.10;64.70
46366;DHT22;32073;49.166;8.076;2022-09-27T22:43:48;14.10;64.70
46366;DHT22;32073;49.166;8.076;2022-09-27T22:47:49;14.10;64.80
46366;DHT22;32073;49.166;8.076;2022-09-27T22:51:50;14.10;64.90
46366;DHT22;32073;49.166;8.076;2022-09-27T22:56:07;14.10;64.90
46366;DHT22;32073;49.166;8.076;2022-09-27T23:00:10;14.10;65.00
46366;DHT22;32073;49.166;8.076;2022-09-27T23:04:11;14.10;65.50
46366;DHT22;32073;49.166;8.076;2022-09-27T23:08:14;14.10;65.10
46366;DHT22;32073;49.166;8.076;2022-09-27T23:12:15;14.10;65.20
46366;DHT22;32073;49.166;8.076;2022-09-27T23:16:18;14.10;65.30
46366;DHT22;32073;49.166;8.076;2022-09-27T23:20:20;14.10;65.50
46366;DHT22;32073;49.166;8.076;2022-09-27T23:24:20;14.10;65.50
46366;DHT22;32073;49.166;8.076;2022-09-27T23:28:22;14.10;65.70
46366;DHT22;32073;49.166;8.076;2022-09-27T23:32:23;14.10;65.70
46366;DHT22;32073;49.166;8.076;2022-09-27T23:36:25;14.10;65.80
46366;DHT22;32073;49.166;8.076;2022-09-27T23:40:26;14.10;65.90
46366;DHT22;32073;49.166;8.076;2022-09-27T23:44:27;14.10;65.90
46366;DHT22;32073;49.166;8.076;2022-09-27T23:48:28;14.10;65.90
46366;DHT22;32073;49.166;8.076;2022-09-27T23:52:29;14.10;66.00
46366;DHT22;32073;49.166;8.076;2022-09-27T23:56:29;14.20;66.10
